Estació meteorològica de St. Llorenç del Munt i l'Obac (Bages, P.N.de Sant Llorenç del Munt i l'Obac)

Consulta les dades en temps real de l'estació meteorològica de St. Llorenç del Munt i l'Obac





Hora UTC 14:50
Temperatura 27.9 ºC
Humitat 54.0 %
Pressió 1026.0 hPa
Pluja 0.0 mm
Velocitat vent 16.4 km/h
Direcció vent S
Radiació solar 567.9 W/m²

Dades diàries 2026-09-03



Hora UTC (hivern +1h; estiu +2h)
Temperatura (ºC) Humitat (%) Pressió (hPa) Velocitat vent (km/h) Precipitació (mm) Radiació solar (W/m²)
Hora UTC Aire Humitat Pressió Vel. Dir. Vel. Max Dir. Intent. màx 5 min. Rad. Sol.
00:05 21.9 60.9 1026.6 4.0 SSW 4.0 SW 0.0 0.1
00:10 21.9 60.8 1026.6 3.6 SW 7.1 S 0.0 0.1
00:15 21.9 60.9 1026.6 3.2 SW 5.3 SW 0.0 0.1
00:20 21.8 61.2 1026.6 0.5 S 3.5 SSW 0.0 0.1
00:25 21.7 61.7 1026.6 2.1 S 4.6 SSE 0.0 0.1
00:30 21.6 61.8 1026.6 5.1 S 9.5 S 0.0 0.1
00:35 21.7 61.5 1026.6 4.5 S 7.1 SSE 0.0 0.1
00:40 1025.2 4.3 6.7 S 0.0 0.1
00:45 21.7 61.3 1026.6 1.7 SSW 4.6 S 0.0 0.1
00:50 21.6 61.2 1026.6 1.8 S 3.9 SSW 0.0 0.1
00:55 21.6 61.3 1026.5 4.4 SSW 8.1 SSW 0.0 0.1
01:00 21.7 61.0 1026.5 5.1 S 7.1 SSW 0.0 0.1
01:05 21.6 61.1 1026.4 5.6 S 9.2 SSE 0.0 0.1
01:10 21.6 61.0 1026.4 5.9 S 8.1 S 0.0 0.1
01:15 21.6 60.8 1026.4 6.0 S 8.5 S 0.0 0.1
01:20 21.7 60.5 1026.4 5.7 S 8.5 SSE 0.0 0.2
01:25 21.7 60.3 1026.4 4.3 SSW 6.4 S 0.0 0.1
01:30 21.8 60.0 1026.4 3.2 SSW 4.9 SSW 0.0 0.1
01:35 21.8 59.8 1026.4 7.4 SSE 10.6 SSE 0.0 0.1
01:40 21.8 60.0 1026.4 7.7 SSE 12.0 SSE 0.0 0.2
01:45 21.7 60.4 1026.4 8.0 SSE 12.0 SSE 0.0 0.1
01:50 21.7 60.4 1026.4 6.1 S 9.9 SSE 0.0 0.1
01:55 21.8 60.0 1026.4 6.4 S 10.6 S 0.0 0.1
02:00 22.0 59.8 1026.4 6.9 SSW 9.9 S 0.0 0.1
02:05 22.2 59.1 1026.4 7.5 SSW 11.3 S 0.0 0.1
02:10 22.1 59.4 1026.3 8.9 S 12.0 S 0.0 0.1
02:15 22.0 59.6 1026.3 10.3 S 15.9 S 0.0 0.1
02:20 21.9 59.8 1026.3 10.0 SSE 13.1 S 0.0 0.1
02:25 21.8 60.3 1026.3 10.2 S 14.8 S 0.0 0.1
02:30 21.7 60.7 1026.3 11.2 S 15.2 SSE 0.0 0.1
02:35 21.7 60.6 1026.3 9.7 S 13.4 SSE 0.0 0.1
02:40 21.6 60.5 1026.3 8.7 S 12.0 SSE 0.0 0.1
02:45 21.6 60.4 1026.3 8.3 S 12.4 S 0.0 0.1
02:50 21.6 60.4 1026.3 8.1 S 10.9 S 0.0 0.1
02:55 21.5 60.3 1026.3 8.1 S 11.6 S 0.0 0.1
03:00 21.5 60.1 1026.2 7.6 SSW 10.2 S 0.0 0.1
03:05 21.5 60.3 1026.2 7.1 S 8.8 SSE 0.0 0.1
03:10 21.5 60.4 1026.2 7.6 SSE 9.9 SSE 0.0 0.1
03:15 21.3 60.7 1026.2 6.7 SSE 10.9 SSE 0.0 0.1
03:20 21.4 60.4 1026.2 5.8 S 9.5 SSE 0.0 0.1
03:25 21.6 59.9 1026.2 6.2 S 7.8 SSE 0.0 0.1
03:30 21.6 59.8 1026.2 6.2 S 9.9 SSE 0.0 0.1
03:35 21.5 60.0 1026.2 7.9 SSE 9.9 SE 0.0 0.1
03:40 21.5 60.0 1026.2 8.4 SSE 12.0 SSE 0.0 0.1
03:45 21.5 60.1 1026.0 9.5 SSE 12.0 SSE 0.0 0.1
03:50 21.4 60.2 1026.0 8.4 S 11.3 S 0.0 0.1
03:55 21.3 60.3 1026.0 8.6 S 10.9 SSE 0.0 0.1
04:00 21.2 60.5 1026.0 8.6 S 11.3 S 0.0 0.1
04:05 21.3 60.1 1025.9 9.8 S 12.7 S 0.0 0.1
04:10 21.3 59.8 1025.9 9.4 SSW 11.6 S 0.0 0.1
04:15 21.4 59.7 1025.8 10.9 SSW 13.4 S 0.0 0.1
04:20 21.4 59.7 1025.8 10.5 S 12.7 SSW 0.0 0.1
04:25 21.3 59.7 1025.8 10.0 S 12.7 S 0.0 0.1
04:30 21.3 59.9 1025.8 9.3 S 12.0 S 0.0 0.1
04:35 21.2 60.0 1025.8 9.4 SSW 12.0 S 0.0 0.1
04:40 21.3 59.7 1025.9 10.0 S 13.4 S 0.0 0.1
04:45 21.3 59.7 1025.8 10.1 S 13.1 S 0.0 0.1
04:50 21.3 59.9 1025.8 9.3 SSW 13.4 SSW 0.0 0.1
04:55 21.1 60.3 1025.8 9.1 SSW 10.9 S 0.0 0.1
05:00 21.0 60.8 1025.9 9.6 S 12.4 S 0.0 0.2
05:05 20.9 61.0 1025.9 9.6 S 14.1 S 0.0 0.4
05:10 20.9 61.0 1025.9 10.1 S 12.7 S 0.0 0.8
05:15 20.8 60.9 1025.9 10.1 S 13.1 S 0.0 1.6
05:20 20.8 60.7 1026.0 10.1 S 13.1 S 0.0 2.8
05:25 20.9 60.6 1026.0 10.5 S 14.5 S 0.0 4.9
05:30 20.9 60.4 1026.1 9.8 SSW 12.4 S 0.0 7.6
05:35 20.9 60.4 1026.1 10.9 SSW 13.8 S 0.0 10.7
05:40 21.0 60.1 1026.1 13.3 SSW 16.2 SSW 0.0 14.6
05:45 21.1 59.6 1026.1 13.0 SSW 17.6 SSE 0.0 34.9
05:50 21.3 59.0 1026.2 13.3 SSW 19.8 SSW 0.0 46.7
05:55 21.5 58.3 1026.3 10.0 SSW 15.9 SSW 0.0 58.0
06:00 21.7 57.5 1026.3 8.3 SSW 15.2 SSW 0.0 69.6
06:05 21.9 56.9 1026.4 8.0 SSW 13.1 SSW 0.0 81.8
06:10 21.9 56.7 1026.5 9.4 SSW 13.8 S 0.0 95.1
06:15 22.0 56.6 1026.4 9.6 SSW 12.7 SW 0.0 108.5
06:20 22.0 56.6 1026.5 9.6 SSW 12.4 SSW 0.0 122.2
06:25 22.1 56.3 1026.6 10.3 SSW 13.8 S 0.0 136.5
06:30 22.3 55.3 1026.6 11.4 SSW 15.2 SSW 0.0 150.1
06:35 22.5 54.4 1026.7 10.6 SSW 14.5 SSW 0.0 164.7
06:40 22.7 54.0 1026.8 10.4 SSW 13.4 S 0.0 179.4
06:45 22.9 53.7 1026.8 10.9 SSW 15.5 S 0.0 194.5
06:50 23.0 53.6 1026.7 11.9 SSW 16.2 SSW 0.0 209.4
06:55 23.0 53.7 1026.7 13.2 SSW 18.0 SSW 0.0 224.1
07:00 1025.4 12.6 18.0 SSW 0.0 239.1
07:05 23.2 53.2 1026.9 12.3 S 16.9 SSW 0.0 253.8
07:10 23.5 52.6 1026.9 13.2 S 20.5 S 0.0 269.4
07:15 23.5 52.2 1026.8 13.2 SSW 20.8 SSW 0.0 284.5
07:20 23.5 52.2 1026.8 14.9 SSW 20.1 SSW 0.0 300.0
07:25 23.6 51.9 1026.8 14.2 SSW 21.2 SSW 0.0 314.6
07:30 23.7 51.8 1026.9 14.4 S 21.5 S 0.0 330.4
07:35 23.9 51.6 1026.9 9.7 SSW 14.8 S 0.0 345.7
07:40 24.1 51.2 1026.9 10.2 S 17.6 S 0.0 361.2
07:45 24.3 50.4 1026.9 11.4 SSW 19.4 S 0.0 376.3
07:50 24.0 50.1 1026.8 16.2 SSW 25.4 SSW 0.0 391.8
07:55 24.2 49.5 1026.8 16.9 SSW 26.1 S 0.0 406.5
08:00 24.1 48.8 1026.8 17.5 SSW 30.0 SW 0.0 421.0
08:05 24.2 49.1 1026.8 16.5 SSW 25.1 SSW 0.0 435.4
08:10 24.3 49.0 1026.9 16.5 SSW 25.1 SSW 0.0 450.4
08:15 24.3 48.7 1026.9 16.5 SSW 28.6 SW 0.0 465.1
08:20 24.4 48.5 1026.9 16.7 SSW 26.1 SSW 0.0 479.2
08:25 24.5 47.9 1026.8 18.4 SSW 26.1 SSW 0.0 492.9
08:30 24.5 47.7 1026.9 18.5 SSW 27.2 SW 0.0 506.4
08:35 24.6 47.8 1027.0 17.4 SSW 26.1 SSW 0.0 519.1
08:40 24.6 47.9 1027.0 16.8 SSW 28.6 S 0.0 531.8
08:45 24.8 48.5 1027.0 13.9 S 24.0 S 0.0 544.0
08:50 25.0 47.0 1027.0 19.7 SSW 26.5 SSW 0.0 556.9
08:55 24.9 46.7 1027.1 19.1 SSW 27.2 SSW 0.0 569.1
09:00 25.0 47.4 1027.1 13.1 S 21.5 SSW 0.0 580.8
09:05 25.4 47.2 1027.2 14.7 SSW 24.7 SSW 0.0 592.8
09:10 25.4 47.0 1027.2 13.9 SSW 26.8 SSW 0.0 604.4
09:15 25.7 46.7 1027.3 14.7 SSW 23.6 SSW 0.0 615.3
09:20 25.5 47.5 1027.3 16.1 SSW 25.1 SW 0.0 626.2
09:25 25.6 47.7 1027.3 14.1 SSW 22.6 S 0.0 637.7
09:30 25.5 48.0 1027.3 14.9 SSW 24.7 SSW 0.0 647.9
09:35 26.2 47.0 1027.3 11.2 S 19.1 SSW 0.0 658.9
09:40 26.5 46.8 1027.4 11.0 S 22.9 SSE 0.0 667.5
09:45 26.4 47.2 1027.3 15.8 SSW 25.8 SSW 0.0 676.4
09:50 26.1 47.9 1027.4 14.5 SSW 22.6 SSW 0.0 684.8
09:55 26.3 48.2 1027.4 15.6 SSW 24.3 S 0.0 695.4
10:00 26.4 47.9 1027.4 12.4 S 23.3 S 0.0 704.2
10:05 26.8 46.8 1027.4 11.7 S 19.8 SSW 0.0 713.5
10:10 26.7 46.9 1027.4 13.7 S 21.2 SSW 0.0 721.4
10:15 26.9 46.2 1027.4 10.4 S 19.4 S 0.0 730.5
10:20 26.9 46.0 1027.4 13.5 SSW 29.6 SW 0.0 739.0
10:25 26.8 46.2 1027.4 14.9 SSW 25.1 SW 0.0 744.9
10:30 27.1 45.6 1027.3 14.5 S 22.9 SSW 0.0 752.8
10:35 26.9 45.9 1027.2 12.8 SSW 22.6 SW 0.0 760.2
10:40 27.3 45.3 1027.2 11.9 S 20.8 SSE 0.0 766.1
10:45 27.6 44.7 1027.1 11.9 SSW 22.2 SSW 0.0 771.6
10:50 27.9 44.7 1027.1 10.6 SSE 24.0 S 0.0 775.9
10:55 28.2 44.1 1027.0 13.7 SSW 21.5 S 0.0 780.2
11:00 27.4 45.5 1027.0 12.1 SSW 19.4 SW 0.0 782.6
11:05 27.5 46.2 1026.9 10.8 S 24.0 SSW 0.0 786.1
11:10 27.9 45.7 1026.9 11.7 S 22.9 SSW 0.0 789.7
11:15 27.9 45.5 1026.9 12.5 SSE 24.3 SSE 0.0 792.8
11:20 28.3 45.3 1026.8 10.2 S 20.8 SE 0.0 794.5
11:25 28.4 44.7 1026.8 14.8 SSE 26.1 SE 0.0 796.8
11:30 28.2 44.8 1026.8 14.3 SSE 24.3 SSE 0.0 799.9
11:35 28.1 45.2 1026.7 12.4 SSE 24.3 S 0.0 802.0
11:40 28.7 44.2 1026.7 11.1 SSE 21.2 SE 0.0 802.0
11:45 28.9 43.4 1026.7 14.3 S 24.3 SSW 0.0 804.0
11:50 29.3 42.9 1026.6 11.7 SSE 21.2 SSE 0.0 804.0
11:55 29.2 42.7 1026.7 13.4 SE 22.6 SE 0.0 804.0
12:00 29.1 43.0 1026.6 14.7 SSE 27.9 S 0.0 804.0
12:05 28.7 44.1 1026.6 11.7 S 21.9 SSW 0.0 804.0
12:10 29.2 43.5 1026.6 12.3 SE 26.8 S 0.0 802.0
12:15 29.4 43.2 1026.6 13.1 SSE 23.6 SSE 0.0 797.0
12:20 29.6 43.2 1026.6 11.6 S 22.6 SSW 0.0 796.2
12:25 29.2 43.9 1026.6 13.0 SSE 22.2 S 0.0 794.8
12:30 29.1 44.5 1026.5 13.4 SSW 23.6 SW 0.0 731.5
12:35 28.6 45.5 1026.5 11.1 S 22.2 S 0.0 787.0
12:40 29.0 45.3 1026.4 16.7 SSW 32.1 SW 0.0 782.7
12:45 28.6 46.0 1026.4 15.3 S 24.0 SW 0.0 779.2
12:50 28.7 46.4 1026.4 14.0 SSW 25.4 SSW 0.0 775.2
12:55 29.1 46.1 1026.4 11.5 S 20.8 SSW 0.0 770.5
13:00 29.3 45.9 1026.4 14.5 S 30.0 SSW 0.0 766.1
13:05 28.8 47.0 1026.4 17.6 S 29.6 SSW 0.0 760.0
13:10 28.7 47.7 1026.4 17.6 SSW 26.1 SSW 0.0 751.6
13:15 28.2 49.6 1026.4 20.7 SSW 31.8 SSW 0.0 745.0
13:20 28.3 50.1 1026.3 18.3 S 29.3 S 0.0 741.2
13:25 28.0 51.5 1026.2 19.3 SSE 31.4 S 0.0 731.4
13:30 28.0 52.0 1026.3 18.4 S 31.4 S 0.0 724.5
13:35 28.1 52.3 1026.3 18.4 S 29.6 S 0.0 714.7
13:40 28.1 53.0 1026.2 18.0 S 29.3 SSE 0.0 706.4
13:45 28.3 52.7 1026.3 15.5 S 29.6 S 0.0 697.9
13:50 28.4 52.0 1026.2 18.6 SSE 31.8 SSE 0.0 689.8
13:55 28.1 52.7 1026.2 17.6 S 32.5 SSW 0.0 680.3
14:00 28.0 52.9 1026.1 18.0 S 29.3 S 0.0 672.8
14:05 28.1 53.2 1026.1 17.0 SSW 27.2 SSW 0.0 662.6
14:10 28.3 53.4 1026.1 17.3 SSE 29.3 SSE 0.0 654.3
14:15 28.0 54.5 1026.0 17.6 SSE 29.6 SSW 0.0 643.6
14:20 28.0 54.7 1026.0 18.9 S 35.3 SW 0.0 634.6
14:25 27.8 55.1 1026.0 21.3 SSW 35.3 SSW 0.0 627.2
14:30 28.0 55.0 1026.0 19.3 SSW 31.1 SW 0.0 613.1
14:35 27.6 55.7 1026.0 20.2 SSW 31.4 S 0.0 601.6
14:40 27.6 55.5 1026.0 20.9 S 32.5 S 0.0 591.5
14:45 27.6 55.3 1026.0 17.9 S 31.1 SSW 0.0 581.0
14:50 27.9 54.0 1026.0 16.4 S 30.0 SSW 0.0 567.9
Màxima 29.6 61.8 1027.4 21.3 SSW 35.3 SSW 0.0 804.0
Mínima 20 42.7 1025.2
Total 0.0